Nenana Municipal Airport Nenana US
ICAO: PANN
IATA:
Category: Medium
Scheduled Services:

Elevation: 362 ft
TransAlt. 18000 ft.

Airport Communications:
FAIRBANKS APP/DEP:125.35
ASOS:125.2
CTAF:122.1
FAIRBANKS RDO:122.5
TWEB:115.8

PANN Zoom In..

If you have problems with the map follow the link
https://www.worldairports.se/pages/airport.php?
ICAO=PANN

Runways:

(A) RW 04L length 4600 ft width 100 ft
---- / hdg 38

(B) RW 04R length 2520 ft width 60 ft
---- / hdg 38

(C) RW 22L length 2520 ft width 60 ft
---- / hdg 218

(D) RW 22R length 4600 ft width 100 ft
---- / hdg 218

Location; PANN
Day. 18 / Time. 07.53 Zulu
* Altimeter: 29.66
* Temperature: 03° c. 37.4°f.
* Wind from: 100° Speed 04 kn.
Dewpoint: 01° c.
Visibility: 10 Statute Miles.
Clouds: Few 12000 ft.

PANN 180753Z AUTO 10004KT 10SM FEW120 03/01 A2966 RMK AO2 SLP051 T00330011 TSNO


Wind From 100°
Speed 04 kn.

 
 
jpsmedia.com for Web Design worldairports.se 2018   terms of use